sensor_id;sensor_type;location;lat;lon;timestamp;pressure;altitude;pressure_sealevel;temperature;humidity
75629;BME280;64213;46.452;16.994;2022-10-16T00:00:30;100346.78;;;10.09;95.34
75629;BME280;64213;46.452;16.994;2022-10-16T00:03:32;100348.56;;;10.09;95.55
75629;BME280;64213;46.452;16.994;2022-10-16T00:06:34;100341.75;;;10.05;95.95
75629;BME280;64213;46.452;16.994;2022-10-16T00:09:37;100341.91;;;10.01;96.26
75629;BME280;64213;46.452;16.994;2022-10-16T00:12:39;100332.37;;;9.99;96.32
75629;BME280;64213;46.452;16.994;2022-10-16T00:15:40;100343.88;;;9.98;96.54
75629;BME280;64213;46.452;16.994;2022-10-16T00:18:45;100338.34;;;10.02;96.72
75629;BME280;64213;46.452;16.994;2022-10-16T00:21:47;100345.25;;;10.05;96.45
75629;BME280;64213;46.452;16.994;2022-10-16T00:24:49;100347.91;;;10.05;96.24
75629;BME280;64213;46.452;16.994;2022-10-16T00:27:51;100343.62;;;10.02;96.00
75629;BME280;64213;46.452;16.994;2022-10-16T00:30:53;100338.19;;;10.06;96.54
75629;BME280;64213;46.452;16.994;2022-10-16T00:33:55;100345.34;;;10.04;96.17
75629;BME280;64213;46.452;16.994;2022-10-16T00:36:57;100345.50;;;10.00;95.65
75629;BME280;64213;46.452;16.994;2022-10-16T00:39:59;100349.28;;;9.96;95.55
75629;BME280;64213;46.452;16.994;2022-10-16T00:43:04;100350.47;;;9.91;95.26
75629;BME280;64213;46.452;16.994;2022-10-16T00:49:19;100359.84;;;9.81;94.92
75629;BME280;64213;46.452;16.994;2022-10-16T00:52:22;100360.78;;;9.80;94.78
75629;BME280;64213;46.452;16.994;2022-10-16T00:55:25;100356.53;;;9.77;94.63
75629;BME280;64213;46.452;16.994;2022-10-16T00:58:27;100355.75;;;9.75;94.63
75629;BME280;64213;46.452;16.994;2022-10-16T01:01:29;100356.09;;;9.69;94.59
75629;BME280;64213;46.452;16.994;2022-10-16T01:04:38;100351.91;;;9.65;94.64
75629;BME280;64213;46.452;16.994;2022-10-16T01:07:56;100360.84;;;9.62;94.74
75629;BME280;64213;46.452;16.994;2022-10-16T01:11:19;100354.97;;;9.57;94.88
75629;BME280;64213;46.452;16.994;2022-10-16T01:14:33;100356.00;;;9.54;95.10
75629;BME280;64213;46.452;16.994;2022-10-16T01:21:32;100350.09;;;9.49;95.03
75629;BME280;64213;46.452;16.994;2022-10-16T01:24:41;100357.25;;;9.47;95.04
75629;BME280;64213;46.452;16.994;2022-10-16T01:27:47;100355.66;;;9.45;95.11
75629;BME280;64213;46.452;16.994;2022-10-16T01:30:52;100365.44;;;9.43;95.23
75629;BME280;64213;46.452;16.994;2022-10-16T01:34:14;100362.13;;;9.39;95.31
75629;BME280;64213;46.452;16.994;2022-10-16T01:37:38;100360.31;;;9.40;95.41
75629;BME280;64213;46.452;16.994;2022-10-16T01:40:45;100364.75;;;9.39;95.37
75629;BME280;64213;46.452;16.994;2022-10-16T01:47:04;100372.84;;;9.36;95.46
75629;BME280;64213;46.452;16.994;2022-10-16T01:50:07;100361.34;;;9.37;95.48
75629;BME280;64213;46.452;16.994;2022-10-16T01:53:12;100371.16;;;9.35;95.44
75629;BME280;64213;46.452;16.994;2022-10-16T01:56:16;100368.50;;;9.35;95.52
75629;BME280;64213;46.452;16.994;2022-10-16T01:59:21;100364.25;;;9.32;95.56
75629;BME280;64213;46.452;16.994;2022-10-16T02:02:27;100366.94;;;9.31;95.57
75629;BME280;64213;46.452;16.994;2022-10-16T02:08:36;100377.66;;;9.28;95.44
75629;BME280;64213;46.452;16.994;2022-10-16T02:11:40;100381.25;;;9.27;95.46
75629;BME280;64213;46.452;16.994;2022-10-16T02:14:42;100383.97;;;9.25;95.36
75629;BME280;64213;46.452;16.994;2022-10-16T02:17:44;100380.47;;;9.25;95.32
75629;BME280;64213;46.452;16.994;2022-10-16T02:21:02;100385.84;;;9.23;95.29
75629;BME280;64213;46.452;16.994;2022-10-16T02:27:30;100389.66;;;9.18;95.06
75629;BME280;64213;46.452;16.994;2022-10-16T02:33:42;100399.63;;;9.13;95.04
75629;BME280;64213;46.452;16.994;2022-10-16T02:36:45;100399.78;;;9.10;95.07
75629;BME280;64213;46.452;16.994;2022-10-16T02:39:49;100399.78;;;9.10;94.92
75629;BME280;64213;46.452;16.994;2022-10-16T02:42:52;100404.16;;;9.09;94.99
75629;BME280;64213;46.452;16.994;2022-10-16T02:45:54;100412.19;;;9.07;95.04
75629;BME280;64213;46.452;16.994;2022-10-16T02:48:57;100412.19;;;9.07;95.07
75629;BME280;64213;46.452;16.994;2022-10-16T02:51:59;100421.09;;;9.05;95.12
75629;BME280;64213;46.452;16.994;2022-10-16T02:55:01;100419.47;;;9.02;95.04
75629;BME280;64213;46.452;16.994;2022-10-16T02:58:03;100417.00;;;8.99;94.50
75629;BME280;64213;46.452;16.994;2022-10-16T03:01:05;100417.94;;;8.98;94.35
75629;BME280;64213;46.452;16.994;2022-10-16T03:04:07;100428.62;;;8.95;94.32
75629;BME280;64213;46.452;16.994;2022-10-16T03:07:10;100422.56;;;8.93;94.43
75629;BME280;64213;46.452;16.994;2022-10-16T03:10:12;100425.38;;;8.90;94.68
75629;BME280;64213;46.452;16.994;2022-10-16T03:13:14;100427.25;;;8.88;94.59
75629;BME280;64213;46.452;16.994;2022-10-16T03:16:16;100429.09;;;8.86;94.68
75629;BME280;64213;46.452;16.994;2022-10-16T03:19:18;100430.19;;;8.82;94.63
75629;BME280;64213;46.452;16.994;2022-10-16T03:22:20;100435.53;;;8.80;94.47
75629;BME280;64213;46.452;16.994;2022-10-16T03:25:22;100434.84;;;8.77;94.41
75629;BME280;64213;46.452;16.994;2022-10-16T03:28:24;100433.28;;;8.73;94.35
75629;BME280;64213;46.452;16.994;2022-10-16T03:31:26;100427.22;;;8.71;94.29
75629;BME280;64213;46.452;16.994;2022-10-16T03:34:28;100436.19;;;8.68;94.40
75629;BME280;64213;46.452;16.994;2022-10-16T03:37:31;100436.25;;;8.67;94.49
75629;BME280;64213;46.452;16.994;2022-10-16T03:40:33;100436.38;;;8.64;94.63
75629;BME280;64213;46.452;16.994;2022-10-16T03:43:35;100435.78;;;8.58;95.19
75629;BME280;64213;46.452;16.994;2022-10-16T03:46:37;100438.47;;;8.57;95.36
75629;BME280;64213;46.452;16.994;2022-10-16T03:49:39;100433.28;;;8.55;96.05
75629;BME280;64213;46.452;16.994;2022-10-16T03:52:41;100441.06;;;8.58;96.17
75629;BME280;64213;46.452;16.994;2022-10-16T03:55:44;100440.72;;;8.65;96.53
75629;BME280;64213;46.452;16.994;2022-10-16T03:58:46;100441.81;;;8.60;96.29
75629;BME280;64213;46.452;16.994;2022-10-16T04:01:48;100439.31;;;8.57;96.09
75629;BME280;64213;46.452;16.994;2022-10-16T04:04:50;100436.09;;;8.52;96.03
75629;BME280;64213;46.452;16.994;2022-10-16T04:07:52;100442.25;;;8.51;96.73
75629;BME280;64213;46.452;16.994;2022-10-16T04:10:54;100444.75;;;8.54;96.56
75629;BME280;64213;46.452;16.994;2022-10-16T04:13:56;100448.47;;;8.50;96.25
75629;BME280;64213;46.452;16.994;2022-10-16T04:16:58;100451.91;;;8.52;96.10
75629;BME280;64213;46.452;16.994;2022-10-16T04:20:00;100441.34;;;8.52;96.03
75629;BME280;64213;46.452;16.994;2022-10-16T04:23:02;100445.75;;;8.52;96.33
75629;BME280;64213;46.452;16.994;2022-10-16T04:26:05;100449.25;;;8.52;96.25
75629;BME280;64213;46.452;16.994;2022-10-16T04:29:07;100456.25;;;8.53;96.18
75629;BME280;64213;46.452;16.994;2022-10-16T04:32:09;100457.09;;;8.54;96.23
75629;BME280;64213;46.452;16.994;2022-10-16T04:35:11;100451.75;;;8.55;96.34
75629;BME280;64213;46.452;16.994;2022-10-16T04:38:13;100459.41;;;8.60;96.57
75629;BME280;64213;46.452;16.994;2022-10-16T04:41:15;100458.47;;;8.61;96.51
75629;BME280;64213;46.452;16.994;2022-10-16T04:44:17;100457.63;;;8.60;96.45
75629;BME280;64213;46.452;16.994;2022-10-16T04:47:19;100457.78;;;8.57;96.57
75629;BME280;64213;46.452;16.994;2022-10-16T04:50:21;100453.50;;;8.55;96.59
75629;BME280;64213;46.452;16.994;2022-10-16T04:53:23;100465.09;;;8.52;96.59
75629;BME280;64213;46.452;16.994;2022-10-16T04:56:25;100472.28;;;8.49;96.68
75629;BME280;64213;46.452;16.994;2022-10-16T04:59:27;100476.78;;;8.47;96.62
75629;BME280;64213;46.452;16.994;2022-10-16T05:02:29;100476.84;;;8.45;96.41
75629;BME280;64213;46.452;16.994;2022-10-16T05:05:31;100482.09;;;8.45;96.44
75629;BME280;64213;46.452;16.994;2022-10-16T05:08:33;100490.94;;;8.44;96.46
75629;BME280;64213;46.452;16.994;2022-10-16T05:11:36;100482.19;;;8.44;96.49
75629;BME280;64213;46.452;16.994;2022-10-16T05:14:38;100484.81;;;8.44;96.56
75629;BME280;64213;46.452;16.994;2022-10-16T05:17:40;100494.53;;;8.43;96.58
75629;BME280;64213;46.452;16.994;2022-10-16T05:20:45;100493.69;;;8.43;96.27
75629;BME280;64213;46.452;16.994;2022-10-16T05:23:47;100504.28;;;8.41;95.68
75629;BME280;64213;46.452;16.994;2022-10-16T05:26:50;100499.16;;;8.38;94.97
75629;BME280;64213;46.452;16.994;2022-10-16T05:29:52;100507.31;;;8.32;94.43
75629;BME280;64213;46.452;16.994;2022-10-16T05:32:54;100511.97;;;8.27;93.60
75629;BME280;64213;46.452;16.994;2022-10-16T05:35:56;100514.87;;;8.21;93.07
75629;BME280;64213;46.452;16.994;2022-10-16T05:38:59;100513.28;;;8.16;93.15
75629;BME280;64213;46.452;16.994;2022-10-16T05:42:00;100521.16;;;8.18;93.17
75629;BME280;64213;46.452;16.994;2022-10-16T05:45:04;100527.28;;;8.19;93.30
75629;BME280;64213;46.452;16.994;2022-10-16T05:48:06;100533.25;;;8.22;93.77
75629;BME280;64213;46.452;16.994;2022-10-16T05:51:10;100532.25;;;8.25;93.78
75629;BME280;64213;46.452;16.994;2022-10-16T05:54:12;100543.22;;;8.34;93.82
75629;BME280;64213;46.452;16.994;2022-10-16T05:57:14;100544.66;;;8.42;93.97
75629;BME280;64213;46.452;16.994;2022-10-16T06:00:17;100540.75;;;8.50;93.95
75629;BME280;64213;46.452;16.994;2022-10-16T06:03:19;100544.66;;;8.60;94.25
75629;BME280;64213;46.452;16.994;2022-10-16T06:06:23;100537.94;;;8.72;94.43
75629;BME280;64213;46.452;16.994;2022-10-16T06:09:27;100541.69;;;8.85;93.85
75629;BME280;64213;46.452;16.994;2022-10-16T06:12:30;100555.94;;;9.00;93.56
75629;BME280;64213;46.452;16.994;2022-10-16T06:15:32;100549.09;;;9.14;93.11
75629;BME280;64213;46.452;16.994;2022-10-16T06:18:34;100554.53;;;9.28;92.64
75629;BME280;64213;46.452;16.994;2022-10-16T06:21:36;100560.03;;;9.41;91.99
75629;BME280;64213;46.452;16.994;2022-10-16T06:24:38;100567.72;;;9.63;91.59
75629;BME280;64213;46.452;16.994;2022-10-16T06:27:40;100563.34;;;9.79;91.68
75629;BME280;64213;46.452;16.994;2022-10-16T06:30:43;100564.25;;;9.95;91.19
75629;BME280;64213;46.452;16.994;2022-10-16T06:33:50;100565.84;;;10.15;91.30
75629;BME280;64213;46.452;16.994;2022-10-16T06:36:53;100569.28;;;10.33;90.94
75629;BME280;64213;46.452;16.994;2022-10-16T06:39:54;100570.00;;;10.53;91.17
75629;BME280;64213;46.452;16.994;2022-10-16T06:42:57;100571.38;;;10.76;91.12
75629;BME280;64213;46.452;16.994;2022-10-16T06:45:59;100577.50;;;10.92;90.63
75629;BME280;64213;46.452;16.994;2022-10-16T06:49:02;100581.31;;;11.02;90.57
75629;BME280;64213;46.452;16.994;2022-10-16T06:52:04;100585.81;;;11.16;90.32
75629;BME280;64213;46.452;16.994;2022-10-16T06:55:06;100589.47;;;11.29;89.94
75629;BME280;64213;46.452;16.994;2022-10-16T06:58:09;100600.38;;;11.39;89.28
75629;BME280;64213;46.452;16.994;2022-10-16T07:01:12;100607.63;;;11.35;89.31
75629;BME280;64213;46.452;16.994;2022-10-16T07:04:14;100608.78;;;11.31;89.17
75629;BME280;64213;46.452;16.994;2022-10-16T07:07:17;100619.38;;;11.31;88.84
75629;BME280;64213;46.452;16.994;2022-10-16T07:10:19;100629.56;;;11.23;89.08
75629;BME280;64213;46.452;16.994;2022-10-16T07:13:21;100639.63;;;11.16;89.39
75629;BME280;64213;46.452;16.994;2022-10-16T07:16:28;100637.94;;;11.15;89.50
75629;BME280;64213;46.452;16.994;2022-10-16T07:19:30;100642.09;;;11.20;89.94
75629;BME280;64213;46.452;16.994;2022-10-16T07:22:35;100632.81;;;11.89;88.33
75629;BME280;64213;46.452;16.994;2022-10-16T07:25:37;100639.34;;;12.83;85.20
75629;BME280;64213;46.452;16.994;2022-10-16T07:28:39;100632.94;;;13.54;82.05
75629;BME280;64213;46.452;16.994;2022-10-16T07:31:42;100632.06;;;14.06;79.15
75629;BME280;64213;46.452;16.994;2022-10-16T07:34:44;100626.59;;;14.72;78.03
75629;BME280;64213;46.452;16.994;2022-10-16T07:37:47;100626.91;;;15.28;76.33
75629;BME280;64213;46.452;16.994;2022-10-16T07:41:02;100631.31;;;15.64;75.27
75629;BME280;64213;46.452;16.994;2022-10-16T07:44:05;100629.66;;;16.43;72.44
75629;BME280;64213;46.452;16.994;2022-10-16T07:47:09;100641.06;;;16.45;73.43
75629;BME280;64213;46.452;16.994;2022-10-16T07:50:11;100643.59;;;16.81;71.74
75629;BME280;64213;46.452;16.994;2022-10-16T07:53:13;100639.19;;;17.46;69.89
75629;BME280;64213;46.452;16.994;2022-10-16T07:56:16;100621.53;;;17.75;69.02
75629;BME280;64213;46.452;16.994;2022-10-16T07:59:18;100630.50;;;18.06;67.95
75629;BME280;64213;46.452;16.994;2022-10-16T08:02:20;100633.44;;;18.03;68.46
75629;BME280;64213;46.452;16.994;2022-10-16T08:05:22;100633.28;;;18.26;67.43
75629;BME280;64213;46.452;16.994;2022-10-16T08:08:25;100636.19;;;17.92;68.72
75629;BME280;64213;46.452;16.994;2022-10-16T08:11:27;100634.75;;;17.88;68.53
75629;BME280;64213;46.452;16.994;2022-10-16T08:14:29;100640.53;;;17.72;69.54
75629;BME280;64213;46.452;16.994;2022-10-16T08:17:31;100643.41;;;17.48;71.56
75629;BME280;64213;46.452;16.994;2022-10-16T08:20:33;100650.00;;;17.12;72.70
75629;BME280;64213;46.452;16.994;2022-10-16T08:23:35;100663.87;;;16.61;75.17
75629;BME280;64213;46.452;16.994;2022-10-16T08:26:37;100664.13;;;16.58;75.89
75629;BME280;64213;46.452;16.994;2022-10-16T08:29:39;100667.28;;;16.40;76.51
75629;BME280;64213;46.452;16.994;2022-10-16T08:32:42;100677.00;;;16.41;76.99
75629;BME280;64213;46.452;16.994;2022-10-16T08:35:51;100683.66;;;16.36;76.83
75629;BME280;64213;46.452;16.994;2022-10-16T08:38:54;100682.19;;;16.43;77.07
75629;BME280;64213;46.452;16.994;2022-10-16T08:48:43;100687.84;;;16.85;75.79
75629;BME280;64213;46.452;16.994;2022-10-16T08:51:46;100693.28;;;16.94;75.33
75629;BME280;64213;46.452;16.994;2022-10-16T08:54:53;100682.47;;;17.07;74.67
75629;BME280;64213;46.452;16.994;2022-10-16T08:57:56;100684.78;;;17.01;74.57
75629;BME280;64213;46.452;16.994;2022-10-16T09:01:01;100681.97;;;17.13;74.49
75629;BME280;64213;46.452;16.994;2022-10-16T09:08:09;100682.09;;;17.44;73.55
75629;BME280;64213;46.452;16.994;2022-10-16T09:24:19;100674.47;;;18.34;70.92
75629;BME280;64213;46.452;16.994;2022-10-16T09:27:26;100684.72;;;18.50;69.91
75629;BME280;64213;46.452;16.994;2022-10-16T09:30:29;100679.84;;;18.86;68.84
75629;BME280;64213;46.452;16.994;2022-10-16T09:33:36;100684.41;;;19.05;68.03
75629;BME280;64213;46.452;16.994;2022-10-16T09:36:42;100687.25;;;19.23;66.61
75629;BME280;64213;46.452;16.994;2022-10-16T09:39:49;100689.88;;;19.73;64.93
75629;BME280;64213;46.452;16.994;2022-10-16T09:46:19;100694.78;;;20.16;62.40
75629;BME280;64213;46.452;16.994;2022-10-16T09:49:25;100696.84;;;20.61;61.96
75629;BME280;64213;46.452;16.994;2022-10-16T09:52:28;100696.84;;;21.17;60.60
75629;BME280;64213;46.452;16.994;2022-10-16T09:55:31;100701.06;;;21.47;58.37
75629;BME280;64213;46.452;16.994;2022-10-16T09:58:33;100708.91;;;21.58;57.41
75629;BME280;64213;46.452;16.994;2022-10-16T10:01:46;100705.19;;;22.31;56.68
75629;BME280;64213;46.452;16.994;2022-10-16T10:04:53;100703.06;;;23.03;55.14
75629;BME280;64213;46.452;16.994;2022-10-16T10:07:58;100696.62;;;23.62;52.98
75629;BME280;64213;46.452;16.994;2022-10-16T10:11:01;100698.63;;;24.58;51.30
75629;BME280;64213;46.452;16.994;2022-10-16T10:14:26;100689.38;;;24.12;52.43
75629;BME280;64213;46.452;16.994;2022-10-16T10:17:27;100687.03;;;23.93;52.82
75629;BME280;64213;46.452;16.994;2022-10-16T10:20:34;100695.31;;;23.83;52.68
75629;BME280;64213;46.452;16.994;2022-10-16T10:23:37;100680.75;;;24.49;50.92
75629;BME280;64213;46.452;16.994;2022-10-16T10:33:31;100684.47;;;24.24;49.96
75629;BME280;64213;46.452;16.994;2022-10-16T10:36:40;100682.06;;;24.53;49.77
75629;BME280;64213;46.452;16.994;2022-10-16T10:40:00;100676.44;;;24.71;49.25
75629;BME280;64213;46.452;16.994;2022-10-16T10:43:15;100678.91;;;24.42;48.73
75629;BME280;64213;46.452;16.994;2022-10-16T10:46:50;100674.37;;;24.09;49.48
75629;BME280;64213;46.452;16.994;2022-10-16T10:50:19;100678.75;;;23.61;49.62
75629;BME280;64213;46.452;16.994;2022-10-16T10:57:02;100670.63;;;24.27;48.44
75629;BME280;64213;46.452;16.994;2022-10-16T11:06:34;100665.44;;;24.73;47.97
75629;BME280;64213;46.452;16.994;2022-10-16T11:09:44;100670.91;;;25.35;46.52
75629;BME280;64213;46.452;16.994;2022-10-16T11:12:54;100675.09;;;25.06;47.14
75629;BME280;64213;46.452;16.994;2022-10-16T11:16:26;100670.34;;;25.40;45.49
75629;BME280;64213;46.452;16.994;2022-10-16T11:22:38;100666.25;;;24.81;46.81
75629;BME280;64213;46.452;16.994;2022-10-16T11:25:43;100663.47;;;24.98;46.42
75629;BME280;64213;46.452;16.994;2022-10-16T11:28:53;100662.44;;;24.68;46.37
75629;BME280;64213;46.452;16.994;2022-10-16T11:32:05;100655.56;;;24.32;47.29
75629;BME280;64213;46.452;16.994;2022-10-16T11:35:18;100664.41;;;23.85;48.21
75629;BME280;64213;46.452;16.994;2022-10-16T11:38:30;100657.59;;;24.39;46.70
75629;BME280;64213;46.452;16.994;2022-10-16T11:41:51;100660.66;;;24.11;47.17
75629;BME280;64213;46.452;16.994;2022-10-16T11:48:17;100661.09;;;25.03;45.27
75629;BME280;64213;46.452;16.994;2022-10-16T11:51:31;100668.59;;;24.85;45.16
75629;BME280;64213;46.452;16.994;2022-10-16T11:54:52;100657.84;;;25.08;45.37
75629;BME280;64213;46.452;16.994;2022-10-16T11:58:33;100656.53;;;25.35;44.56
75629;BME280;64213;46.452;16.994;2022-10-16T12:01:54;100655.88;;;25.79;44.04
75629;BME280;64213;46.452;16.994;2022-10-16T12:08:34;100655.34;;;25.60;44.74
75629;BME280;64213;46.452;16.994;2022-10-16T12:11:38;100652.84;;;25.27;45.88
75629;BME280;64213;46.452;16.994;2022-10-16T12:14:40;100653.56;;;25.67;44.75
75629;BME280;64213;46.452;16.994;2022-10-16T12:18:02;100639.84;;;25.69;45.08
75629;BME280;64213;46.452;16.994;2022-10-16T12:21:04;100654.28;;;25.15;46.04
75629;BME280;64213;46.452;16.994;2022-10-16T12:24:21;100648.09;;;25.52;44.75
75629;BME280;64213;46.452;16.994;2022-10-16T12:27:30;100633.31;;;25.09;45.30
75629;BME280;64213;46.452;16.994;2022-10-16T12:30:35;100633.72;;;25.75;44.42
75629;BME280;64213;46.452;16.994;2022-10-16T12:33:43;100631.88;;;25.67;43.53
75629;BME280;64213;46.452;16.994;2022-10-16T12:36:54;100644.44;;;25.14;45.10
75629;BME280;64213;46.452;16.994;2022-10-16T12:39:56;100646.53;;;25.58;44.13
75629;BME280;64213;46.452;16.994;2022-10-16T12:43:13;100629.78;;;26.01;43.61
75629;BME280;64213;46.452;16.994;2022-10-16T12:49:37;100639.78;;;26.15;42.96
75629;BME280;64213;46.452;16.994;2022-10-16T12:52:59;100639.00;;;25.68;43.58
75629;BME280;64213;46.452;16.994;2022-10-16T12:56:24;100642.62;;;25.84;43.57
75629;BME280;64213;46.452;16.994;2022-10-16T13:06:30;100645.38;;;25.52;44.42
75629;BME280;64213;46.452;16.994;2022-10-16T13:23:13;100650.50;;;25.70;43.67
75629;BME280;64213;46.452;16.994;2022-10-16T13:29:43;100650.06;;;25.59;43.51
75629;BME280;64213;46.452;16.994;2022-10-16T13:32:58;100650.06;;;25.04;44.87
75629;BME280;64213;46.452;16.994;2022-10-16T13:36:02;100646.38;;;24.97;45.26
75629;BME280;64213;46.452;16.994;2022-10-16T13:39:15;100648.13;;;24.51;46.67
75629;BME280;64213;46.452;16.994;2022-10-16T13:42:29;100648.50;;;24.79;46.50
75629;BME280;64213;46.452;16.994;2022-10-16T13:45:31;100644.63;;;24.01;48.74
75629;BME280;64213;46.452;16.994;2022-10-16T13:48:33;100647.22;;;24.98;46.37
75629;BME280;64213;46.452;16.994;2022-10-16T13:51:35;100650.75;;;24.67;47.41
75629;BME280;64213;46.452;16.994;2022-10-16T13:54:37;100645.66;;;24.72;47.16
75629;BME280;64213;46.452;16.994;2022-10-16T13:57:41;100649.19;;;24.73;47.71
75629;BME280;64213;46.452;16.994;2022-10-16T14:00:54;100648.50;;;25.18;46.87
75629;BME280;64213;46.452;16.994;2022-10-16T14:04:08;100650.06;;;24.73;47.65
75629;BME280;64213;46.452;16.994;2022-10-16T14:07:22;100651.66;;;24.51;48.49
75629;BME280;64213;46.452;16.994;2022-10-16T14:10:28;100658.75;;;24.52;48.50
75629;BME280;64213;46.452;16.994;2022-10-16T14:13:42;100652.50;;;24.52;48.48
75629;BME280;64213;46.452;16.994;2022-10-16T14:16:45;100655.97;;;23.97;50.32
75629;BME280;64213;46.452;16.994;2022-10-16T14:19:50;100659.00;;;23.94;50.71
75629;BME280;64213;46.452;16.994;2022-10-16T14:23:01;100660.34;;;23.98;50.22
75629;BME280;64213;46.452;16.994;2022-10-16T14:29:14;100662.47;;;23.20;52.33
75629;BME280;64213;46.452;16.994;2022-10-16T14:32:26;100662.81;;;23.42;51.93
75629;BME280;64213;46.452;16.994;2022-10-16T14:38:33;100664.25;;;23.04;52.97
75629;BME280;64213;46.452;16.994;2022-10-16T14:41:43;100660.25;;;23.08;53.36
75629;BME280;64213;46.452;16.994;2022-10-16T14:44:47;100667.03;;;22.51;54.71
75629;BME280;64213;46.452;16.994;2022-10-16T14:47:58;100667.03;;;22.51;55.31
75629;BME280;64213;46.452;16.994;2022-10-16T14:51:02;100668.41;;;22.90;54.31
75629;BME280;64213;46.452;16.994;2022-10-16T14:54:04;100676.16;;;22.50;55.39
75629;BME280;64213;46.452;16.994;2022-10-16T14:57:17;100671.16;;;22.12;56.27
75629;BME280;64213;46.452;16.994;2022-10-16T15:00:22;100681.03;;;22.21;56.42
75629;BME280;64213;46.452;16.994;2022-10-16T15:03:24;100667.53;;;21.77;57.16
75629;BME280;64213;46.452;16.994;2022-10-16T15:06:27;100671.44;;;21.47;58.28
75629;BME280;64213;46.452;16.994;2022-10-16T15:09:29;100670.87;;;21.25;58.64
75629;BME280;64213;46.452;16.994;2022-10-16T15:12:31;100677.91;;;21.08;59.75
75629;BME280;64213;46.452;16.994;2022-10-16T15:18:38;100675.50;;;21.05;59.80
75629;BME280;64213;46.452;16.994;2022-10-16T15:21:40;100681.50;;;20.99;60.29
75629;BME280;64213;46.452;16.994;2022-10-16T15:24:44;100683.19;;;20.73;61.18
75629;BME280;64213;46.452;16.994;2022-10-16T15:27:46;100684.09;;;20.54;62.06
75629;BME280;64213;46.452;16.994;2022-10-16T15:30:53;100685.50;;;20.48;62.45
75629;BME280;64213;46.452;16.994;2022-10-16T15:33:58;100686.97;;;20.42;63.01
75629;BME280;64213;46.452;16.994;2022-10-16T15:37:05;100691.78;;;20.29;63.57
75629;BME280;64213;46.452;16.994;2022-10-16T15:40:09;100690.94;;;20.29;63.65
75629;BME280;64213;46.452;16.994;2022-10-16T15:43:11;100702.69;;;20.18;63.93
75629;BME280;64213;46.452;16.994;2022-10-16T15:46:14;100706.25;;;19.99;65.18
75629;BME280;64213;46.452;16.994;2022-10-16T15:49:17;100708.25;;;19.78;65.77
75629;BME280;64213;46.452;16.994;2022-10-16T15:52:19;100709.38;;;19.65;65.40
75629;BME280;64213;46.452;16.994;2022-10-16T15:55:21;100707.69;;;19.64;65.75
75629;BME280;64213;46.452;16.994;2022-10-16T15:58:23;100711.03;;;19.47;66.90
75629;BME280;64213;46.452;16.994;2022-10-16T16:01:26;100714.09;;;19.33;67.07
75629;BME280;64213;46.452;16.994;2022-10-16T16:04:30;100713.22;;;19.22;67.11
75629;BME280;64213;46.452;16.994;2022-10-16T16:07:45;100721.22;;;19.03;67.34
75629;BME280;64213;46.452;16.994;2022-10-16T16:11:11;100720.78;;;18.98;66.91
75629;BME280;64213;46.452;16.994;2022-10-16T16:14:13;100743.00;;;18.79;67.96
75629;BME280;64213;46.452;16.994;2022-10-16T16:17:15;100741.25;;;18.47;70.80
75629;BME280;64213;46.452;16.994;2022-10-16T16:20:17;100745.03;;;18.24;71.79
75629;BME280;64213;46.452;16.994;2022-10-16T16:23:19;100752.59;;;17.98;73.09
75629;BME280;64213;46.452;16.994;2022-10-16T16:26:27;100749.25;;;17.84;74.31
75629;BME280;64213;46.452;16.994;2022-10-16T16:29:31;100749.00;;;17.76;74.71
75629;BME280;64213;46.452;16.994;2022-10-16T16:32:34;100757.34;;;17.62;75.54
75629;BME280;64213;46.452;16.994;2022-10-16T16:35:36;100760.66;;;17.43;76.70
75629;BME280;64213;46.452;16.994;2022-10-16T16:38:38;100760.28;;;17.48;75.70
75629;BME280;64213;46.452;16.994;2022-10-16T16:41:40;100771.22;;;17.56;75.72
75629;BME280;64213;46.452;16.994;2022-10-16T16:44:42;100771.31;;;17.54;75.43
75629;BME280;64213;46.452;16.994;2022-10-16T16:47:44;100773.25;;;17.63;74.54
75629;BME280;64213;46.452;16.994;2022-10-16T16:50:47;100780.59;;;17.50;75.41
75629;BME280;64213;46.452;16.994;2022-10-16T16:53:50;100784.12;;;17.39;76.83
75629;BME280;64213;46.452;16.994;2022-10-16T16:56:53;100785.47;;;17.23;77.65
75629;BME280;64213;46.452;16.994;2022-10-16T16:59:56;100786.59;;;17.09;78.46
75629;BME280;64213;46.452;16.994;2022-10-16T17:02:58;100788.78;;;16.92;79.49
75629;BME280;64213;46.452;16.994;2022-10-16T17:06:05;100799.66;;;16.78;80.45
75629;BME280;64213;46.452;16.994;2022-10-16T17:09:09;100787.97;;;16.68;80.25
75629;BME280;64213;46.452;16.994;2022-10-16T17:12:11;100799.37;;;16.59;80.57
75629;BME280;64213;46.452;16.994;2022-10-16T17:15:14;100798.88;;;16.54;80.66
75629;BME280;64213;46.452;16.994;2022-10-16T17:18:17;100817.44;;;16.44;81.36
75629;BME280;64213;46.452;16.994;2022-10-16T17:21:20;100822.50;;;16.36;81.54
75629;BME280;64213;46.452;16.994;2022-10-16T17:24:24;100826.25;;;16.33;81.62
75629;BME280;64213;46.452;16.994;2022-10-16T17:27:32;100824.78;;;16.29;81.74
75629;BME280;64213;46.452;16.994;2022-10-16T17:30:35;100827.06;;;16.22;82.04
75629;BME280;64213;46.452;16.994;2022-10-16T17:33:38;100832.75;;;16.18;82.25
75629;BME280;64213;46.452;16.994;2022-10-16T17:36:41;100836.59;;;16.14;82.49
75629;BME280;64213;46.452;16.994;2022-10-16T17:39:45;100832.06;;;16.03;82.99
75629;BME280;64213;46.452;16.994;2022-10-16T17:42:48;100831.06;;;15.93;83.20
75629;BME280;64213;46.452;16.994;2022-10-16T17:45:51;100839.63;;;15.85;83.43
75629;BME280;64213;46.452;16.994;2022-10-16T17:48:54;100834.22;;;15.74;84.05